createdAt,value
2018-07-25T00:00:59.866Z,75.43
2018-07-25T00:03:28.777Z,76.98
2018-07-25T00:05:57.426Z,77.16
2018-07-25T00:08:26.131Z,76.28
2018-07-25T00:10:55.606Z,77.53
2018-07-25T00:13:25.948Z,76.97
2018-07-25T00:15:54.746Z,76.12
2018-07-25T00:18:23.426Z,76.20
2018-07-25T00:20:52.203Z,76.00
2018-07-25T00:23:20.848Z,75.79
2018-07-25T00:25:49.571Z,76.75
2018-07-25T00:28:18.275Z,77.21
2018-07-25T00:30:46.982Z,76.24
2018-07-25T00:33:15.664Z,76.13
2018-07-25T00:35:44.373Z,75.61
2018-07-25T00:38:12.987Z,76.85
2018-07-25T00:40:41.716Z,76.44
2018-07-25T00:43:10.458Z,76.73
2018-07-25T00:45:39.315Z,77.00
2018-07-25T00:48:08.598Z,77.12
2018-07-25T00:50:37.319Z,76.97
2018-07-25T00:53:05.997Z,77.09
2018-07-25T00:55:34.628Z,77.40
2018-07-25T00:58:03.401Z,77.76
2018-07-25T01:00:32.130Z,77.16
2018-07-25T01:03:00.961Z,76.82
2018-07-25T01:05:29.703Z,78.03
2018-07-25T01:07:58.323Z,77.29
2018-07-25T01:10:27.296Z,78.46
2018-07-25T01:12:56.005Z,77.88
2018-07-25T01:15:24.656Z,78.38
2018-07-25T01:17:53.427Z,77.50
2018-07-25T01:20:22.252Z,77.82
2018-07-25T01:22:50.943Z,78.77
2018-07-25T01:25:19.652Z,77.85
2018-07-25T01:27:48.355Z,78.26
2018-07-25T01:30:17.055Z,77.97
2018-07-25T01:32:45.791Z,77.82
2018-07-25T01:35:14.428Z,78.26
2018-07-25T01:37:43.068Z,78.28
2018-07-25T01:40:11.712Z,78.55
2018-07-25T01:42:40.439Z,78.43
2018-07-25T01:45:09.196Z,78.19
2018-07-25T01:47:38.028Z,78.27
2018-07-25T01:50:06.998Z,78.66
2018-07-25T01:52:35.733Z,79.15
2018-07-25T01:55:04.965Z,79.29
2018-07-25T01:57:33.689Z,79.25
2018-07-25T02:00:02.381Z,79.08
2018-07-25T02:02:31.037Z,79.42
2018-07-25T02:04:59.725Z,78.92
2018-07-25T02:07:28.366Z,78.77
2018-07-25T02:09:57.024Z,79.29
2018-07-25T02:12:25.705Z,79.37
2018-07-25T02:14:54.361Z,80.12
2018-07-25T02:17:23.090Z,79.42
2018-07-25T02:19:51.714Z,78.72
2018-07-25T02:22:20.423Z,78.89
2018-07-25T02:24:49.526Z,79.97
2018-07-25T02:27:18.168Z,79.59
2018-07-25T02:29:46.952Z,79.70
2018-07-25T02:32:15.627Z,79.96
2018-07-25T02:34:44.232Z,79.40
2018-07-25T02:37:12.903Z,79.43
2018-07-25T02:39:42.136Z,79.71
2018-07-25T02:42:10.887Z,79.58
2018-07-25T02:44:39.633Z,79.36
2018-07-25T02:47:08.401Z,78.71
2018-07-25T02:49:37.166Z,79.36
2018-07-25T02:52:05.892Z,79.18
2018-07-25T02:54:34.534Z,78.54
2018-07-25T02:57:03.415Z,78.69
2018-07-25T02:59:32.022Z,79.10
2018-07-25T03:02:00.693Z,78.58
2018-07-25T03:04:29.374Z,78.82
2018-07-25T03:06:58.109Z,78.06
2018-07-25T03:09:26.845Z,78.42
2018-07-25T03:11:55.550Z,78.56
2018-07-25T03:14:24.272Z,78.26
2018-07-25T03:16:52.927Z,78.54
2018-07-25T03:19:21.631Z,78.23
2018-07-25T03:21:50.301Z,78.05
2018-07-25T03:24:18.993Z,77.59
2018-07-25T03:26:47.817Z,77.41
2018-07-25T03:29:16.577Z,77.63
2018-07-25T03:31:45.203Z,77.55
2018-07-25T03:34:13.914Z,76.69
2018-07-25T03:36:42.707Z,76.73
2018-07-25T03:39:11.338Z,76.98
2018-07-25T03:41:40.223Z,76.85
2018-07-25T03:44:08.844Z,77.05
2018-07-25T03:46:37.652Z,76.81
2018-07-25T03:49:06.330Z,76.80
2018-07-25T03:51:34.992Z,76.33
2018-07-25T03:54:03.761Z,76.99
2018-07-25T03:56:32.435Z,76.78
2018-07-25T03:59:01.040Z,76.60
2018-07-25T04:01:29.724Z,76.30
2018-07-25T04:03:58.473Z,75.71
2018-07-25T04:06:27.139Z,75.76
2018-07-25T04:08:55.803Z,75.88
2018-07-25T04:11:24.558Z,75.30
2018-07-25T04:13:53.230Z,75.77
2018-07-25T04:16:21.970Z,75.07
2018-07-25T04:18:51.100Z,74.87
2018-07-25T04:21:19.719Z,74.55
2018-07-25T04:23:48.364Z,75.13
2018-07-25T04:26:17.051Z,74.27
2018-07-25T04:28:45.701Z,74.33
2018-07-25T04:31:14.335Z,73.61
2018-07-25T04:33:43.261Z,73.57
2018-07-25T04:36:11.901Z,73.56
2018-07-25T04:38:40.548Z,73.06
2018-07-25T04:41:09.320Z,72.14
2018-07-25T04:43:37.958Z,72.24
2018-07-25T04:46:06.750Z,71.74
2018-07-25T04:48:35.490Z,71.60
2018-07-25T04:51:04.159Z,71.12
2018-07-25T04:53:32.912Z,69.98
2018-07-25T04:56:01.659Z,69.86
2018-07-25T04:58:30.655Z,67.05
2018-07-25T05:00:59.964Z,58.17
2018-07-25T05:03:28.668Z,53.74
2018-07-25T05:05:57.368Z,51.08
2018-07-25T05:08:26.119Z,53.21
2018-07-25T05:10:54.746Z,56.01
2018-07-25T05:13:23.587Z,60.15
2018-07-25T05:15:52.287Z,61.31
2018-07-25T05:18:20.906Z,61.22
2018-07-25T05:20:49.907Z,62.32
2018-07-25T05:23:18.629Z,62.11
2018-07-25T05:25:47.281Z,62.47
2018-07-25T05:28:16.051Z,62.27
2018-07-25T05:30:44.728Z,61.56
2018-07-25T05:33:13.464Z,61.55
2018-07-25T05:35:42.297Z,62.30
2018-07-25T05:38:11.013Z,61.87
2018-07-25T05:40:39.655Z,61.72
2018-07-25T05:43:08.353Z,60.57
2018-07-25T05:45:37.021Z,61.37
2018-07-25T05:48:05.715Z,60.61
2018-07-25T05:50:34.558Z,59.75
2018-07-25T05:53:03.265Z,60.04
2018-07-25T05:55:31.828Z,59.91
2018-07-25T05:58:00.630Z,59.17
2018-07-25T06:00:29.384Z,59.03
2018-07-25T06:02:58.155Z,56.98
2018-07-25T06:05:26.890Z,57.38
2018-07-25T06:07:55.586Z,56.76
2018-07-25T06:10:24.378Z,57.10
2018-07-25T06:12:53.300Z,57.15
2018-07-25T06:15:21.940Z,55.86
2018-07-25T06:17:50.577Z,55.40
2018-07-25T06:20:19.321Z,53.96
2018-07-25T06:22:48.102Z,53.95
2018-07-25T06:25:16.828Z,53.36
2018-07-25T06:27:46.257Z,54.88
2018-07-25T06:30:14.954Z,54.48
2018-07-25T06:32:43.647Z,54.58
2018-07-25T06:35:12.551Z,52.98
2018-07-25T06:37:41.184Z,51.59
2018-07-25T06:40:09.794Z,51.01
2018-07-25T06:42:38.566Z,50.32
2018-07-25T06:45:07.649Z,51.44
2018-07-25T06:47:36.698Z,49.91
2018-07-25T06:50:06.147Z,49.62
2018-07-25T06:52:34.843Z,48.76
2018-07-25T06:55:03.538Z,49.81
2018-07-25T06:57:32.199Z,48.16
2018-07-25T07:00:00.955Z,48.04
2018-07-25T07:02:29.599Z,47.48
2018-07-25T07:04:58.568Z,47.62
2018-07-25T07:07:27.398Z,48.19
2018-07-25T07:09:56.242Z,48.42
2018-07-25T07:12:25.103Z,46.73
2018-07-25T07:14:53.828Z,48.04
2018-07-25T07:17:22.540Z,47.17
2018-07-25T07:19:51.479Z,47.28
2018-07-25T07:22:20.071Z,44.53
2018-07-25T07:24:48.846Z,43.92
2018-07-25T07:27:17.614Z,44.40
2018-07-25T07:29:46.341Z,44.40
2018-07-25T07:32:15.092Z,43.43
2018-07-25T07:34:43.852Z,43.44
2018-07-25T07:37:12.661Z,43.47
2018-07-25T07:39:41.301Z,42.66
2018-07-25T07:42:10.076Z,42.20
2018-07-25T07:44:38.822Z,42.82
2018-07-25T07:47:07.635Z,42.45
2018-07-25T07:49:36.313Z,41.97
2018-07-25T07:52:05.029Z,42.10
2018-07-25T07:54:33.797Z,41.22
2018-07-25T07:57:02.544Z,41.85
2018-07-25T07:59:31.329Z,41.90
2018-07-25T08:02:00.139Z,40.27
2018-07-25T08:04:28.878Z,41.70
2018-07-25T08:06:57.631Z,39.63
2018-07-25T08:10:28.740Z,39.72
2018-07-25T08:12:57.719Z,40.72
2018-07-25T08:15:26.764Z,39.40
2018-07-25T08:17:55.486Z,40.13
2018-07-25T08:20:24.150Z,38.83
2018-07-25T08:22:52.845Z,39.29
2018-07-25T08:25:21.540Z,38.03
2018-07-25T08:27:50.263Z,37.63
2018-07-25T08:30:18.955Z,38.50
2018-07-25T08:32:47.684Z,38.72
2018-07-25T08:35:16.459Z,37.94
2018-07-25T08:37:45.311Z,38.18
2018-07-25T08:40:13.951Z,39.10
2018-07-25T08:42:42.856Z,36.56
2018-07-25T08:45:11.512Z,38.17
2018-07-25T08:47:40.108Z,38.78
2018-07-25T08:50:09.785Z,39.01
2018-07-25T08:52:38.950Z,39.26
2018-07-25T08:55:07.681Z,38.82
2018-07-25T08:57:36.402Z,37.17
2018-07-25T09:00:05.956Z,37.64
2018-07-25T09:02:34.698Z,36.36
2018-07-25T09:05:03.508Z,36.88
2018-07-25T09:07:32.285Z,37.48
2018-07-25T09:10:01.068Z,37.06
2018-07-25T09:12:29.742Z,36.30
2018-07-25T09:14:58.531Z,36.93
2018-07-25T09:17:27.283Z,36.24
2018-07-25T09:19:56.164Z,35.90
2018-07-25T09:22:24.910Z,37.86
2018-07-25T09:24:53.765Z,37.25
2018-07-25T09:27:22.544Z,36.74
2018-07-25T09:29:51.297Z,36.68
2018-07-25T09:32:19.974Z,36.68
2018-07-25T09:34:48.685Z,37.61
2018-07-25T09:37:17.499Z,37.00
2018-07-25T09:39:46.262Z,36.05
2018-07-25T09:42:14.936Z,35.89
2018-07-25T09:44:43.691Z,35.26
2018-07-25T09:47:12.407Z,35.44
2018-07-25T09:49:41.043Z,35.23
2018-07-25T09:52:09.882Z,36.15
2018-07-25T09:54:38.625Z,36.55
2018-07-25T09:57:07.373Z,35.12
2018-07-25T09:59:36.108Z,35.42
2018-07-25T10:02:04.742Z,35.08
2018-07-25T10:04:33.555Z,35.30
2018-07-25T10:07:02.199Z,34.21
2018-07-25T10:09:30.743Z,35.06
2018-07-25T10:11:59.380Z,35.20
2018-07-25T10:14:28.034Z,35.74
2018-07-25T10:16:56.892Z,36.69
2018-07-25T10:19:25.755Z,36.26
2018-07-25T10:21:54.500Z,36.22
2018-07-25T10:24:23.259Z,36.86
2018-07-25T10:26:51.986Z,36.66
2018-07-25T10:29:20.732Z,36.25
2018-07-25T10:31:49.379Z,36.54
2018-07-25T10:34:18.166Z,36.63
2018-07-25T10:36:46.873Z,37.16
2018-07-25T10:39:15.535Z,37.02
2018-07-25T10:41:44.451Z,37.58
2018-07-25T10:44:13.303Z,37.45
2018-07-25T10:46:42.619Z,37.05
2018-07-25T10:49:11.451Z,36.43
2018-07-25T10:51:40.216Z,36.34
2018-07-25T10:54:08.892Z,35.75
2018-07-25T10:56:37.525Z,34.94
2018-07-25T10:59:06.187Z,34.50
2018-07-25T11:01:34.906Z,33.07
2018-07-25T11:04:03.622Z,32.23
2018-07-25T11:06:32.301Z,31.48
2018-07-25T11:09:00.995Z,32.17
2018-07-25T11:11:30.500Z,32.13
2018-07-25T11:14:00.545Z,31.25
2018-07-25T11:16:29.449Z,31.04
2018-07-25T11:18:58.090Z,31.04
2018-07-25T11:21:26.895Z,31.36
2018-07-25T11:23:55.653Z,30.56
2018-07-25T11:26:24.383Z,31.22
2018-07-25T11:28:53.051Z,30.17
2018-07-25T11:31:21.880Z,31.14
2018-07-25T11:33:50.494Z,31.32
2018-07-25T11:36:19.185Z,31.14
2018-07-25T11:38:47.924Z,30.69
2018-07-25T11:41:16.672Z,29.37
2018-07-25T11:43:45.502Z,29.19
2018-07-25T11:46:14.192Z,29.85
2018-07-25T11:48:43.017Z,28.95
2018-07-25T11:51:11.706Z,29.09
2018-07-25T11:53:40.381Z,29.07
2018-07-25T11:56:09.040Z,30.56
2018-07-25T11:58:37.748Z,30.40
2018-07-25T12:01:06.494Z,30.46
2018-07-25T12:03:35.121Z,30.06
2018-07-25T12:06:03.811Z,28.55
2018-07-25T12:08:32.577Z,29.58
2018-07-25T12:11:01.358Z,28.90
2018-07-25T12:13:30.220Z,28.73
2018-07-25T12:15:58.938Z,28.10
2018-07-25T12:18:27.687Z,28.03
2018-07-25T12:20:56.568Z,28.09
2018-07-25T12:23:25.319Z,28.59
2018-07-25T12:25:54.003Z,28.50
2018-07-25T12:28:22.682Z,27.96
2018-07-25T12:30:51.397Z,27.57
2018-07-25T12:33:20.080Z,27.48
2018-07-25T12:35:48.972Z,27.29
2018-07-25T12:38:17.652Z,28.32
2018-07-25T12:40:46.283Z,28.20
2018-07-25T12:43:15.013Z,27.96
2018-07-25T12:45:43.982Z,27.83
2018-07-25T12:48:12.691Z,28.63
2018-07-25T12:50:41.413Z,29.16
2018-07-25T12:53:10.188Z,27.69
2018-07-25T12:55:38.915Z,28.22
2018-07-25T12:58:07.765Z,28.26
2018-07-25T13:00:36.527Z,29.18
2018-07-25T13:03:05.921Z,29.12
2018-07-25T13:05:34.632Z,29.47
2018-07-25T13:08:03.348Z,28.98
2018-07-25T13:10:32.158Z,29.55
2018-07-25T13:13:00.929Z,30.35
2018-07-25T13:15:29.641Z,30.55
2018-07-25T13:17:58.294Z,31.54
2018-07-25T13:20:27.073Z,31.78
2018-07-25T13:22:56.082Z,31.65
2018-07-25T13:25:24.745Z,30.63
2018-07-25T13:27:53.572Z,30.64
2018-07-25T13:30:22.375Z,30.30
2018-07-25T13:32:51.147Z,29.79
2018-07-25T13:35:19.840Z,29.71
2018-07-25T13:37:48.802Z,28.29
2018-07-25T13:40:17.515Z,28.11
2018-07-25T13:42:46.393Z,28.60
2018-07-25T13:45:15.151Z,29.13
2018-07-25T13:47:43.796Z,28.94
2018-07-25T13:50:12.528Z,29.73
2018-07-25T13:52:41.412Z,30.19
2018-07-25T13:55:10.093Z,30.03
2018-07-25T13:57:38.727Z,30.76
2018-07-25T14:00:09.293Z,30.70
2018-07-25T14:02:38.046Z,30.37
2018-07-25T14:05:07.057Z,30.29
2018-07-25T14:07:35.684Z,30.40
2018-07-25T14:10:04.929Z,29.67
2018-07-25T14:12:33.696Z,29.80
2018-07-25T14:15:02.523Z,29.34
2018-07-25T14:17:31.304Z,29.31
2018-07-25T14:20:00.039Z,29.07
2018-07-25T14:22:28.709Z,29.79
2018-07-25T14:24:57.792Z,29.66
2018-07-25T14:27:26.584Z,29.94
2018-07-25T14:29:55.255Z,29.33
2018-07-25T14:32:23.974Z,28.97
2018-07-25T14:34:52.919Z,29.40
2018-07-25T14:37:21.588Z,30.00
2018-07-25T14:39:50.536Z,30.04
2018-07-25T14:42:19.351Z,29.43
2018-07-25T14:44:48.183Z,28.97
2018-07-25T14:47:17.043Z,27.37
2018-07-25T14:49:45.871Z,25.71
2018-07-25T14:52:14.556Z,25.46
2018-07-25T14:54:43.243Z,25.67
2018-07-25T14:57:12.130Z,27.07
2018-07-25T14:59:40.959Z,26.44
2018-07-25T15:02:09.709Z,26.27
2018-07-25T15:04:38.443Z,27.43
2018-07-25T15:07:07.137Z,26.66
2018-07-25T15:09:35.851Z,27.46
2018-07-25T15:12:04.811Z,27.24
2018-07-25T15:14:33.531Z,27.49
2018-07-25T15:17:02.326Z,26.64
2018-07-25T15:19:30.951Z,28.39
2018-07-25T15:21:59.620Z,29.31
2018-07-25T15:24:28.334Z,28.61
2018-07-25T15:26:56.967Z,28.14
2018-07-25T15:29:25.709Z,28.53
2018-07-25T15:31:54.455Z,29.97
2018-07-25T15:34:23.179Z,30.61
2018-07-25T15:36:52.948Z,32.33
2018-07-25T15:39:22.835Z,33.16
2018-07-25T15:41:52.407Z,34.59
2018-07-25T15:44:22.097Z,35.60
2018-07-25T15:46:50.854Z,36.25
2018-07-25T15:49:20.101Z,36.80
2018-07-25T15:51:49.092Z,36.51
2018-07-25T15:54:17.891Z,37.06
2018-07-25T15:56:46.811Z,36.73
2018-07-25T15:59:15.589Z,36.70
2018-07-25T16:01:44.381Z,36.38
2018-07-25T16:04:13.112Z,36.26
2018-07-25T16:06:42.088Z,35.71
2018-07-25T16:09:12.327Z,37.67
2018-07-25T16:11:41.567Z,37.30
2018-07-25T16:14:10.305Z,35.95
2018-07-25T16:16:38.999Z,36.11
2018-07-25T16:19:07.815Z,36.86
2018-07-25T16:21:36.582Z,36.90
2018-07-25T16:24:05.315Z,37.85
2018-07-25T16:26:33.989Z,38.61
2018-07-25T16:29:03.147Z,39.25
2018-07-25T16:31:31.859Z,39.43
2018-07-25T16:34:00.599Z,39.91
2018-07-25T16:36:29.424Z,38.72
2018-07-25T16:38:58.414Z,39.65
2018-07-25T16:41:27.248Z,39.24
2018-07-25T16:43:56.072Z,39.21
2018-07-25T16:46:24.767Z,39.15
2018-07-25T16:48:53.498Z,38.98
2018-07-25T16:51:23.128Z,39.00
2018-07-25T16:53:51.806Z,39.67
2018-07-25T16:56:20.552Z,39.01
2018-07-25T16:58:49.305Z,39.31
2018-07-25T17:01:18.092Z,40.07
2018-07-25T17:03:46.780Z,39.91
2018-07-25T17:06:15.533Z,40.41
2018-07-25T17:08:44.234Z,40.40
2018-07-25T17:11:12.882Z,40.77
2018-07-25T17:13:41.726Z,40.77
2018-07-25T17:16:10.934Z,41.13
2018-07-25T17:18:39.588Z,41.82
2018-07-25T17:21:08.294Z,41.52
2018-07-25T17:23:37.008Z,41.69
2018-07-25T17:26:05.711Z,42.28
2018-07-25T17:28:34.415Z,42.57
2018-07-25T17:31:03.075Z,43.44
2018-07-25T17:33:31.846Z,42.96
2018-07-25T17:36:00.622Z,43.68
2018-07-25T17:38:29.476Z,43.82
2018-07-25T17:40:58.378Z,43.26
2018-07-25T17:43:27.000Z,43.01
2018-07-25T17:45:55.741Z,42.59
2018-07-25T17:48:24.476Z,42.56
2018-07-25T17:50:53.199Z,42.82
2018-07-25T17:53:22.224Z,42.71
2018-07-25T17:55:51.177Z,42.66
2018-07-25T17:58:19.872Z,42.75
2018-07-25T18:00:48.625Z,43.30
2018-07-25T18:03:17.386Z,43.43
2018-07-25T18:05:46.110Z,43.30
2018-07-25T18:08:14.746Z,43.00
2018-07-25T18:10:43.598Z,43.91
2018-07-25T18:14:18.506Z,43.86
2018-07-25T18:16:47.159Z,44.37
2018-07-25T18:19:16.609Z,43.91
2018-07-25T18:21:45.307Z,43.57
2018-07-25T18:24:14.362Z,44.51
2018-07-25T18:26:43.262Z,44.19
2018-07-25T18:29:12.124Z,44.37
2018-07-25T18:31:40.944Z,44.91
2018-07-25T18:34:09.677Z,44.88
2018-07-25T18:36:38.373Z,45.14
2018-07-25T18:39:10.069Z,45.28
2018-07-25T18:41:38.967Z,45.18
2018-07-25T18:44:07.817Z,45.10
2018-07-25T18:46:36.565Z,45.60
2018-07-25T18:49:05.352Z,46.07
2018-07-25T18:51:34.034Z,46.42
2018-07-25T18:54:02.900Z,46.10
2018-07-25T18:56:31.663Z,45.95
2018-07-25T18:59:00.408Z,46.11
2018-07-25T19:01:29.098Z,46.37
2018-07-25T19:03:58.002Z,46.52
2018-07-25T19:06:27.358Z,46.14
2018-07-25T19:08:56.047Z,46.62
2018-07-25T19:11:24.776Z,46.70
2018-07-25T19:13:58.612Z,46.65
2018-07-25T19:16:27.270Z,46.83
2018-07-25T19:18:56.051Z,47.44
2018-07-25T19:21:24.841Z,47.42
2018-07-25T19:23:53.606Z,47.53
2018-07-25T19:26:22.267Z,48.22
2018-07-25T19:28:50.965Z,48.01
2018-07-25T19:31:19.772Z,48.41
2018-07-25T19:33:48.422Z,48.46
2018-07-25T19:36:17.023Z,49.51
2018-07-25T19:38:45.646Z,49.25
2018-07-25T19:41:14.426Z,49.96
2018-07-25T19:43:43.082Z,49.63
2018-07-25T19:46:11.753Z,48.93
2018-07-25T19:48:40.448Z,49.44
2018-07-25T19:51:09.158Z,49.15
2018-07-25T19:53:37.917Z,50.20
2018-07-25T19:56:06.706Z,49.95
2018-07-25T19:58:35.326Z,50.71
2018-07-25T20:01:03.990Z,50.13
2018-07-25T20:03:32.665Z,49.83
2018-07-25T20:06:01.335Z,50.20
2018-07-25T20:08:29.983Z,50.73
2018-07-25T20:10:58.731Z,51.01
2018-07-25T20:13:31.320Z,51.17
2018-07-25T20:16:01.369Z,51.40
2018-07-25T20:18:30.725Z,51.70
2018-07-25T20:20:59.465Z,51.69
2018-07-25T20:23:28.655Z,52.63
2018-07-25T20:25:57.510Z,52.21
2018-07-25T20:28:26.419Z,53.04
2018-07-25T20:30:55.466Z,53.20
2018-07-25T20:33:24.112Z,53.44
2018-07-25T20:35:53.220Z,53.12
2018-07-25T20:38:21.872Z,52.99
2018-07-25T20:40:50.595Z,53.44
2018-07-25T20:43:19.466Z,53.07
2018-07-25T20:45:48.091Z,53.73
2018-07-25T20:48:16.896Z,53.63
2018-07-25T20:50:45.661Z,53.89
2018-07-25T20:53:14.366Z,54.10
2018-07-25T20:55:43.092Z,54.52
2018-07-25T20:58:12.174Z,54.75
2018-07-25T21:00:40.857Z,54.80
2018-07-25T21:03:09.480Z,54.45
2018-07-25T21:05:38.200Z,54.54
2018-07-25T21:08:07.007Z,55.04
2018-07-25T21:10:36.721Z,54.97
2018-07-25T21:13:05.555Z,55.17
2018-07-25T21:15:34.348Z,56.03
2018-07-25T21:18:03.017Z,55.73
2018-07-25T21:20:31.843Z,55.97
2018-07-25T21:23:00.683Z,56.66
2018-07-25T21:25:29.392Z,56.77
2018-07-25T21:27:58.288Z,57.30
2018-07-25T21:30:27.012Z,57.22
2018-07-25T21:32:55.844Z,57.65
2018-07-25T21:35:24.526Z,56.76
2018-07-25T21:37:53.597Z,57.22
2018-07-25T21:40:22.359Z,56.95
2018-07-25T21:42:51.160Z,56.97
2018-07-25T21:45:20.012Z,57.26
2018-07-25T21:47:48.647Z,56.97
2018-07-25T21:50:17.466Z,57.01
2018-07-25T21:52:46.263Z,57.57
2018-07-25T21:55:14.977Z,57.83
2018-07-25T21:57:43.657Z,57.55
2018-07-25T22:00:15.707Z,57.99
2018-07-25T22:02:45.795Z,57.55
2018-07-25T22:05:14.875Z,57.98
2018-07-25T22:07:44.383Z,58.64
2018-07-25T22:10:13.042Z,58.87
2018-07-25T22:12:41.900Z,58.87
2018-07-25T22:15:11.621Z,58.70
2018-07-25T22:17:40.286Z,58.95
2018-07-25T22:20:12.127Z,59.12
2018-07-25T22:22:41.220Z,59.32
2018-07-25T22:25:10.591Z,59.68
2018-07-25T22:27:39.926Z,59.93
2018-07-25T22:30:09.025Z,59.65
2018-07-25T22:32:37.745Z,60.00
2018-07-25T22:35:06.467Z,59.35
2018-07-25T22:37:35.149Z,59.25
2018-07-25T22:40:03.901Z,59.79
2018-07-25T22:42:32.719Z,59.94
2018-07-25T22:45:01.432Z,60.50
2018-07-25T22:47:30.067Z,60.18
2018-07-25T22:49:58.782Z,60.17
2018-07-25T22:52:27.467Z,60.00
2018-07-25T22:54:56.221Z,60.61
2018-07-25T22:57:24.898Z,60.97
2018-07-25T22:59:54.257Z,60.22
2018-07-25T23:02:22.914Z,60.57
2018-07-25T23:04:51.663Z,60.93
2018-07-25T23:07:20.282Z,60.50
2018-07-25T23:09:48.991Z,60.91
2018-07-25T23:12:17.600Z,61.46
2018-07-25T23:14:46.367Z,60.77
2018-07-25T23:17:15.013Z,60.78
2018-07-25T23:19:43.697Z,61.69
2018-07-25T23:22:12.310Z,62.32
2018-07-25T23:24:41.050Z,62.13
2018-07-25T23:27:09.830Z,62.46
2018-07-25T23:29:38.553Z,64.11
2018-07-25T23:32:07.243Z,66.41
2018-07-25T23:34:36.062Z,68.63
2018-07-25T23:37:04.843Z,68.99
2018-07-25T23:39:33.514Z,70.40
2018-07-25T23:42:02.251Z,69.31
2018-07-25T23:44:31.759Z,70.09
2018-07-25T23:47:00.458Z,69.50
2018-07-25T23:49:29.063Z,71.26
2018-07-25T23:51:57.851Z,70.74
2018-07-25T23:54:26.433Z,70.59
2018-07-25T23:56:55.148Z,70.91
2018-07-25T23:59:23.939Z,71.39
